Samos, Greece
Current Conditions -  °F | °C
As of 11:20 AM on Wednesday 22 Oct 2014 (Local Time) from LGSM Reporting Station
Scattered Clouds Scattered Clouds  
Wind Chill: 22°   Ceiling: Unl
Heat Index: 22°   Visibility: 6mi
Dew Point: 15°   Wind: 17mph
Humidity: 64%   Direction: 150°SSE
Pressure: 29.91"   Gusts: NA
Location:  37.76°N, 26.98°E
Report Text: LGSM 220820Z 15015KT 9999 FEW020 SCT100 22/15 Q1013
Loading
Personal Weather Stations






























Interactive Weather Map
Tropical Storm Tracking
New forecast layout! Learn more

10-Day Weather Forecast

Advertisements
Track Severe Weather on mobile